sensor_id;sensor_type;location;lat;lon;timestamp;pressure;altitude;pressure_sealevel;temperature;humidity
26531;BME280;14201;43.188;24.160;2023-01-26T00:01:23;100581.06;;;2.41;82.76
26531;BME280;14201;43.188;24.160;2023-01-26T00:03:49;100579.66;;;2.44;82.62
26531;BME280;14201;43.188;24.160;2023-01-26T00:06:16;100565.22;;;2.65;81.78
26531;BME280;14201;43.188;24.160;2023-01-26T00:08:43;100563.50;;;2.55;82.09
26531;BME280;14201;43.188;24.160;2023-01-26T00:11:09;100564.88;;;2.42;82.32
26531;BME280;14201;43.188;24.160;2023-01-26T00:13:35;100557.75;;;2.29;82.35
26531;BME280;14201;43.188;24.160;2023-01-26T00:16:01;100555.56;;;2.33;83.10
26531;BME280;14201;43.188;24.160;2023-01-26T00:18:27;100550.81;;;2.38;83.22
26531;BME280;14201;43.188;24.160;2023-01-26T00:20:56;100550.34;;;2.42;83.41
26531;BME280;14201;43.188;24.160;2023-01-26T00:23:22;100550.75;;;2.47;82.78
26531;BME280;14201;43.188;24.160;2023-01-26T00:25:47;100551.13;;;2.41;82.53
26531;BME280;14201;43.188;24.160;2023-01-26T00:28:13;100551.75;;;2.39;82.96
26531;BME280;14201;43.188;24.160;2023-01-26T00:30:38;100550.78;;;2.28;83.78
26531;BME280;14201;43.188;24.160;2023-01-26T00:33:03;100558.16;;;2.33;83.93
26531;BME280;14201;43.188;24.160;2023-01-26T00:35:29;100553.75;;;2.32;84.52
26531;BME280;14201;43.188;24.160;2023-01-26T00:37:54;100558.97;;;2.43;83.45
26531;BME280;14201;43.188;24.160;2023-01-26T00:40:19;100560.50;;;2.41;83.23
26531;BME280;14201;43.188;24.160;2023-01-26T00:42:45;100551.50;;;2.46;83.25
26531;BME280;14201;43.188;24.160;2023-01-26T00:45:10;100553.69;;;2.70;81.87
26531;BME280;14201;43.188;24.160;2023-01-26T00:47:36;100548.91;;;2.65;81.25
26531;BME280;14201;43.188;24.160;2023-01-26T00:50:01;100545.25;;;2.52;82.52
26531;BME280;14201;43.188;24.160;2023-01-26T00:52:27;100549.75;;;2.55;83.15
26531;BME280;14201;43.188;24.160;2023-01-26T00:54:52;100547.13;;;2.64;81.74
26531;BME280;14201;43.188;24.160;2023-01-26T00:57:17;100554.94;;;2.65;81.01
26531;BME280;14201;43.188;24.160;2023-01-26T00:59:43;100552.78;;;2.41;82.11
26531;BME280;14201;43.188;24.160;2023-01-26T01:02:08;100546.22;;;2.44;81.57
26531;BME280;14201;43.188;24.160;2023-01-26T01:04:33;100554.25;;;2.28;82.98
26531;BME280;14201;43.188;24.160;2023-01-26T01:06:59;100545.44;;;2.16;83.09
26531;BME280;14201;43.188;24.160;2023-01-26T01:09:24;100550.72;;;1.99;84.42
26531;BME280;14201;43.188;24.160;2023-01-26T01:11:50;100542.03;;;2.07;84.16
26531;BME280;14201;43.188;24.160;2023-01-26T01:14:16;100538.38;;;2.13;84.20
26531;BME280;14201;43.188;24.160;2023-01-26T01:16:41;100531.47;;;2.23;83.90
26531;BME280;14201;43.188;24.160;2023-01-26T01:19:07;100534.13;;;2.14;84.20
26531;BME280;14201;43.188;24.160;2023-01-26T01:21:33;100525.53;;;2.13;84.63
26531;BME280;14201;43.188;24.160;2023-01-26T01:24:00;100510.47;;;2.08;84.58
26531;BME280;14201;43.188;24.160;2023-01-26T01:26:26;100509.78;;;2.00;84.86
26531;BME280;14201;43.188;24.160;2023-01-26T01:28:54;100500.38;;;2.01;85.30
26531;BME280;14201;43.188;24.160;2023-01-26T01:31:20;100502.13;;;1.91;85.45
26531;BME280;14201;43.188;24.160;2023-01-26T01:33:46;100491.59;;;1.88;86.17
26531;BME280;14201;43.188;24.160;2023-01-26T01:36:12;100482.84;;;1.86;86.58
26531;BME280;14201;43.188;24.160;2023-01-26T01:38:37;100482.00;;;1.77;86.33
26531;BME280;14201;43.188;24.160;2023-01-26T01:41:03;100471.44;;;1.74;87.15
26531;BME280;14201;43.188;24.160;2023-01-26T01:43:28;100464.03;;;1.77;87.54
26531;BME280;14201;43.188;24.160;2023-01-26T01:45:54;100467.28;;;1.66;87.52
26531;BME280;14201;43.188;24.160;2023-01-26T01:50:49;100472.56;;;1.48;88.70
26531;BME280;14201;43.188;24.160;2023-01-26T01:53:17;100474.63;;;1.52;88.59
26531;BME280;14201;43.188;24.160;2023-01-26T01:55:49;100477.63;;;1.76;88.50
26531;BME280;14201;43.188;24.160;2023-01-26T01:58:15;100482.00;;;1.77;88.26
26531;BME280;14201;43.188;24.160;2023-01-26T02:00:40;100488.88;;;1.87;88.36
26531;BME280;14201;43.188;24.160;2023-01-26T02:03:07;100489.81;;;1.97;87.83
26531;BME280;14201;43.188;24.160;2023-01-26T02:06:21;100480.41;;;2.17;86.15
26531;BME280;14201;43.188;24.160;2023-01-26T02:08:23;100489.91;;;2.08;86.15
26531;BME280;14201;43.188;24.160;2023-01-26T02:10:50;100481.84;;;2.13;86.19
26531;BME280;14201;43.188;24.160;2023-01-26T02:13:17;100484.00;;;2.38;85.11
26531;BME280;14201;43.188;24.160;2023-01-26T02:15:44;100480.38;;;2.36;85.38
26531;BME280;14201;43.188;24.160;2023-01-26T02:18:10;100472.28;;;2.31;85.43
26531;BME280;14201;43.188;24.160;2023-01-26T02:23:06;100469.00;;;2.13;85.57
26531;BME280;14201;43.188;24.160;2023-01-26T02:28:00;100469.06;;;2.34;84.85
26531;BME280;14201;43.188;24.160;2023-01-26T02:30:26;100455.50;;;2.16;85.08
26531;BME280;14201;43.188;24.160;2023-01-26T02:32:51;100450.88;;;2.12;84.73
26531;BME280;14201;43.188;24.160;2023-01-26T02:35:17;100448.00;;;2.09;85.29
26531;BME280;14201;43.188;24.160;2023-01-26T02:37:42;100455.78;;;2.19;85.22
26531;BME280;14201;43.188;24.160;2023-01-26T02:40:11;100444.19;;;2.14;85.19
26531;BME280;14201;43.188;24.160;2023-01-26T02:42:38;100452.13;;;2.07;85.52
26531;BME280;14201;43.188;24.160;2023-01-26T02:45:06;100459.88;;;2.17;85.53
26531;BME280;14201;43.188;24.160;2023-01-26T02:47:31;100449.34;;;2.14;85.57
26531;BME280;14201;43.188;24.160;2023-01-26T02:49:57;100449.97;;;2.11;85.24
26531;BME280;14201;43.188;24.160;2023-01-26T02:52:25;100453.06;;;2.17;84.91
26531;BME280;14201;43.188;24.160;2023-01-26T02:54:51;100447.19;;;2.00;86.50
26531;BME280;14201;43.188;24.160;2023-01-26T02:57:35;100436.63;;;2.15;85.37
26531;BME280;14201;43.188;24.160;2023-01-26T03:00:02;100424.28;;;2.11;86.63
26531;BME280;14201;43.188;24.160;2023-01-26T03:02:27;100415.16;;;2.15;85.43
26531;BME280;14201;43.188;24.160;2023-01-26T03:04:53;100411.19;;;2.19;85.37
26531;BME280;14201;43.188;24.160;2023-01-26T03:07:18;100408.47;;;2.17;85.75
26531;BME280;14201;43.188;24.160;2023-01-26T03:09:44;100411.63;;;2.33;84.39
26531;BME280;14201;43.188;24.160;2023-01-26T03:12:09;100400.81;;;2.27;85.07
26531;BME280;14201;43.188;24.160;2023-01-26T03:14:34;100399.91;;;2.27;85.19
26531;BME280;14201;43.188;24.160;2023-01-26T03:17:00;100392.44;;;2.20;85.81
26531;BME280;14201;43.188;24.160;2023-01-26T03:19:25;100387.69;;;2.24;85.85
26531;BME280;14201;43.188;24.160;2023-01-26T03:22:09;100386.97;;;2.46;84.79
26531;BME280;14201;43.188;24.160;2023-01-26T03:24:53;100380.00;;;2.34;84.77
26531;BME280;14201;43.188;24.160;2023-01-26T03:27:39;100374.75;;;2.33;85.05
26531;BME280;14201;43.188;24.160;2023-01-26T03:30:05;100376.53;;;2.34;85.66
26531;BME280;14201;43.188;24.160;2023-01-26T03:32:30;100370.28;;;2.51;84.20
26531;BME280;14201;43.188;24.160;2023-01-26T03:34:55;100370.28;;;2.61;83.36
26531;BME280;14201;43.188;24.160;2023-01-26T03:37:21;100382.25;;;2.50;83.01
26531;BME280;14201;43.188;24.160;2023-01-26T03:39:47;100381.75;;;2.54;83.52
26531;BME280;14201;43.188;24.160;2023-01-26T03:42:31;100376.81;;;2.37;83.93
26531;BME280;14201;43.188;24.160;2023-01-26T03:45:15;100372.56;;;2.38;84.48
26531;BME280;14201;43.188;24.160;2023-01-26T03:48:06;100366.00;;;2.31;84.54
26531;BME280;14201;43.188;24.160;2023-01-26T03:50:50;100370.38;;;2.32;84.84
26531;BME280;14201;43.188;24.160;2023-01-26T03:53:34;100358.81;;;2.37;85.09
26531;BME280;14201;43.188;24.160;2023-01-26T03:56:18;100348.94;;;2.42;85.46
26531;BME280;14201;43.188;24.160;2023-01-26T03:58:56;100340.97;;;2.49;85.20
26531;BME280;14201;43.188;24.160;2023-01-26T04:01:23;100344.34;;;2.68;83.70
26531;BME280;14201;43.188;24.160;2023-01-26T04:03:53;100338.53;;;2.71;82.51
26531;BME280;14201;43.188;24.160;2023-01-26T04:06:38;100330.84;;;2.71;82.10
26531;BME280;14201;43.188;24.160;2023-01-26T04:09:22;100333.03;;;2.66;82.43
26531;BME280;14201;43.188;24.160;2023-01-26T04:11:47;100336.34;;;2.45;83.64
26531;BME280;14201;43.188;24.160;2023-01-26T04:14:13;100333.28;;;2.59;83.60
26531;BME280;14201;43.188;24.160;2023-01-26T04:16:58;100345.88;;;2.66;83.52
26531;BME280;14201;43.188;24.160;2023-01-26T04:19:42;100322.75;;;2.56;82.88
26531;BME280;14201;43.188;24.160;2023-01-26T04:22:26;100321.16;;;2.38;83.88
26531;BME280;14201;43.188;24.160;2023-01-26T04:24:51;100314.69;;;2.22;84.70
26531;BME280;14201;43.188;24.160;2023-01-26T04:27:17;100314.25;;;2.36;84.73
26531;BME280;14201;43.188;24.160;2023-01-26T04:29:42;100314.47;;;2.19;85.44
26531;BME280;14201;43.188;24.160;2023-01-26T04:32:07;100318.53;;;2.07;86.61
26531;BME280;14201;43.188;24.160;2023-01-26T04:34:33;100317.03;;;2.29;85.77
26531;BME280;14201;43.188;24.160;2023-01-26T04:36:58;100316.81;;;2.36;85.44
26531;BME280;14201;43.188;24.160;2023-01-26T04:39:24;100315.22;;;2.28;85.88
26531;BME280;14201;43.188;24.160;2023-01-26T04:41:49;100315.38;;;2.40;85.53
26531;BME280;14201;43.188;24.160;2023-01-26T04:44:15;100314.75;;;2.43;85.38
26531;BME280;14201;43.188;24.160;2023-01-26T04:46:41;100312.66;;;2.28;85.86
26531;BME280;14201;43.188;24.160;2023-01-26T04:49:06;100316.25;;;2.20;86.31
26531;BME280;14201;43.188;24.160;2023-01-26T04:51:32;100316.00;;;2.27;85.90
26531;BME280;14201;43.188;24.160;2023-01-26T04:53:57;100313.56;;;2.29;86.58
26531;BME280;14201;43.188;24.160;2023-01-26T04:56:27;100299.16;;;2.21;86.12
26531;BME280;14201;43.188;24.160;2023-01-26T04:58:53;100302.66;;;2.31;87.19
26531;BME280;14201;43.188;24.160;2023-01-26T05:01:19;100296.34;;;2.38;86.10
26531;BME280;14201;43.188;24.160;2023-01-26T05:03:44;100291.94;;;2.16;86.95
26531;BME280;14201;43.188;24.160;2023-01-26T05:06:10;100292.84;;;2.17;87.58
26531;BME280;14201;43.188;24.160;2023-01-26T05:08:35;100278.00;;;1.84;88.48
26531;BME280;14201;43.188;24.160;2023-01-26T05:11:01;100278.09;;;1.75;90.84
26531;BME280;14201;43.188;24.160;2023-01-26T05:13:26;100279.84;;;1.55;92.21
26531;BME280;14201;43.188;24.160;2023-01-26T05:15:52;100278.28;;;1.57;93.13
26531;BME280;14201;43.188;24.160;2023-01-26T05:18:17;100277.38;;;1.57;93.90
26531;BME280;14201;43.188;24.160;2023-01-26T05:20:42;100274.16;;;1.49;93.78
26531;BME280;14201;43.188;24.160;2023-01-26T05:23:08;100276.31;;;1.45;94.70
26531;BME280;14201;43.188;24.160;2023-01-26T05:25:33;100271.72;;;1.51;94.78
26531;BME280;14201;43.188;24.160;2023-01-26T05:27:59;100271.16;;;1.45;94.76
26531;BME280;14201;43.188;24.160;2023-01-26T05:30:24;100275.47;;;1.35;95.35
26531;BME280;14201;43.188;24.160;2023-01-26T05:32:50;100277.19;;;1.45;95.08
26531;BME280;14201;43.188;24.160;2023-01-26T05:35:15;100276.97;;;1.52;95.49
26531;BME280;14201;43.188;24.160;2023-01-26T05:37:40;100290.88;;;1.35;95.89
26531;BME280;14201;43.188;24.160;2023-01-26T05:40:07;100284.84;;;1.35;95.83
26531;BME280;14201;43.188;24.160;2023-01-26T05:42:32;100282.06;;;1.42;95.75
26531;BME280;14201;43.188;24.160;2023-01-26T05:44:58;100291.34;;;1.50;95.55
26531;BME280;14201;43.188;24.160;2023-01-26T05:47:23;100289.84;;;1.63;95.47
26531;BME280;14201;43.188;24.160;2023-01-26T05:49:48;100285.53;;;1.72;94.63
26531;BME280;14201;43.188;24.160;2023-01-26T05:52:15;100287.84;;;1.69;94.01
26531;BME280;14201;43.188;24.160;2023-01-26T05:54:40;100299.25;;;1.43;95.28
26531;BME280;14201;43.188;24.160;2023-01-26T05:57:06;100280.91;;;1.38;96.26
26531;BME280;14201;43.188;24.160;2023-01-26T05:59:32;100278.16;;;1.27;97.50
26531;BME280;14201;43.188;24.160;2023-01-26T06:01:58;100265.31;;;1.27;98.07
26531;BME280;14201;43.188;24.160;2023-01-26T06:04:23;100266.81;;;1.14;98.08
26531;BME280;14201;43.188;24.160;2023-01-26T06:06:52;100275.56;;;1.27;98.47
26531;BME280;14201;43.188;24.160;2023-01-26T06:09:18;100278.78;;;1.24;98.53
26531;BME280;14201;43.188;24.160;2023-01-26T06:11:44;100273.31;;;1.11;99.30
26531;BME280;14201;43.188;24.160;2023-01-26T06:14:09;100265.97;;;1.24;99.35
26531;BME280;14201;43.188;24.160;2023-01-26T06:16:34;100259.53;;;1.29;98.79
26531;BME280;14201;43.188;24.160;2023-01-26T06:19:00;100269.22;;;1.32;99.08
26531;BME280;14201;43.188;24.160;2023-01-26T06:21:25;100257.16;;;1.41;98.32
26531;BME280;14201;43.188;24.160;2023-01-26T06:23:50;100265.97;;;1.53;97.50
26531;BME280;14201;43.188;24.160;2023-01-26T06:26:16;100264.97;;;1.32;98.74
26531;BME280;14201;43.188;24.160;2023-01-26T06:28:41;100264.09;;;1.42;98.81
26531;BME280;14201;43.188;24.160;2023-01-26T06:31:07;100262.94;;;1.38;98.38
26531;BME280;14201;43.188;24.160;2023-01-26T06:33:34;100268.72;;;1.17;98.65
26531;BME280;14201;43.188;24.160;2023-01-26T06:36:00;100250.63;;;1.15;100.00
26531;BME280;14201;43.188;24.160;2023-01-26T06:38:25;100250.13;;;1.20;100.00
26531;BME280;14201;43.188;24.160;2023-01-26T06:40:51;100246.94;;;1.22;100.00
26531;BME280;14201;43.188;24.160;2023-01-26T06:43:16;100248.28;;;1.08;100.00
26531;BME280;14201;43.188;24.160;2023-01-26T06:45:42;100247.72;;;1.02;100.00
26531;BME280;14201;43.188;24.160;2023-01-26T06:48:07;100243.78;;;1.06;100.00
26531;BME280;14201;43.188;24.160;2023-01-26T06:50:32;100239.13;;;1.21;100.00
26531;BME280;14201;43.188;24.160;2023-01-26T06:53:00;100243.03;;;1.36;100.00
26531;BME280;14201;43.188;24.160;2023-01-26T06:55:30;100236.88;;;1.34;99.56
26531;BME280;14201;43.188;24.160;2023-01-26T06:57:56;100234.53;;;1.27;99.69
26531;BME280;14201;43.188;24.160;2023-01-26T07:00:21;100228.75;;;1.29;99.66
26531;BME280;14201;43.188;24.160;2023-01-26T07:02:47;100232.28;;;1.40;99.25
26531;BME280;14201;43.188;24.160;2023-01-26T07:05:12;100236.13;;;1.45;99.07
26531;BME280;14201;43.188;24.160;2023-01-26T07:07:38;100231.94;;;1.56;98.50
26531;BME280;14201;43.188;24.160;2023-01-26T07:10:03;100235.03;;;1.62;97.69
26531;BME280;14201;43.188;24.160;2023-01-26T07:12:40;100231.97;;;1.66;97.47
26531;BME280;14201;43.188;24.160;2023-01-26T07:15:06;100225.28;;;1.58;97.87
26531;BME280;14201;43.188;24.160;2023-01-26T07:17:32;100215.88;;;1.48;97.29
26531;BME280;14201;43.188;24.160;2023-01-26T07:19:57;100212.47;;;1.29;98.38
26531;BME280;14201;43.188;24.160;2023-01-26T07:22:23;100211.44;;;1.27;99.29
26531;BME280;14201;43.188;24.160;2023-01-26T07:24:48;100213.47;;;1.21;99.44
26531;BME280;14201;43.188;24.160;2023-01-26T07:27:13;100207.41;;;1.20;100.00
26531;BME280;14201;43.188;24.160;2023-01-26T07:29:39;100218.84;;;1.24;100.00
26531;BME280;14201;43.188;24.160;2023-01-26T07:32:04;100214.72;;;1.15;99.99
26531;BME280;14201;43.188;24.160;2023-01-26T07:34:30;100208.75;;;1.06;100.00
26531;BME280;14201;43.188;24.160;2023-01-26T07:36:56;100205.34;;;1.16;100.00
26531;BME280;14201;43.188;24.160;2023-01-26T07:39:21;100216.28;;;1.24;100.00
26531;BME280;14201;43.188;24.160;2023-01-26T07:41:47;100218.00;;;1.33;100.00
26531;BME280;14201;43.188;24.160;2023-01-26T07:44:13;100210.03;;;1.30;99.81
26531;BME280;14201;43.188;24.160;2023-01-26T07:46:39;100207.69;;;1.23;99.82
26531;BME280;14201;43.188;24.160;2023-01-26T07:49:05;100207.19;;;1.27;99.49
26531;BME280;14201;43.188;24.160;2023-01-26T07:51:31;100207.88;;;1.35;99.17
26531;BME280;14201;43.188;24.160;2023-01-26T07:53:56;100208.44;;;1.22;99.65
26531;BME280;14201;43.188;24.160;2023-01-26T07:56:23;100220.88;;;1.17;100.00
26531;BME280;14201;43.188;24.160;2023-01-26T07:58:49;100212.66;;;1.11;100.00
26531;BME280;14201;43.188;24.160;2023-01-26T08:01:15;100212.28;;;1.17;100.00
26531;BME280;14201;43.188;24.160;2023-01-26T08:03:40;100205.81;;;1.31;100.00
26531;BME280;14201;43.188;24.160;2023-01-26T08:06:06;100209.91;;;1.29;100.00
26531;BME280;14201;43.188;24.160;2023-01-26T08:08:32;100211.69;;;1.30;100.00
26531;BME280;14201;43.188;24.160;2023-01-26T08:10:58;100197.81;;;1.28;100.00
26531;BME280;14201;43.188;24.160;2023-01-26T08:13:25;100192.13;;;1.41;100.00
26531;BME280;14201;43.188;24.160;2023-01-26T08:15:50;100191.47;;;1.43;99.33
26531;BME280;14201;43.188;24.160;2023-01-26T08:18:16;100194.59;;;1.49;98.12
26531;BME280;14201;43.188;24.160;2023-01-26T08:20:47;100191.03;;;1.57;98.34
26531;BME280;14201;43.188;24.160;2023-01-26T08:23:13;100185.56;;;1.34;98.24
26531;BME280;14201;43.188;24.160;2023-01-26T08:25:38;100185.22;;;1.50;98.72
26531;BME280;14201;43.188;24.160;2023-01-26T08:28:03;100183.25;;;1.47;98.87
26531;BME280;14201;43.188;24.160;2023-01-26T08:30:29;100179.19;;;1.49;98.31
26531;BME280;14201;43.188;24.160;2023-01-26T08:32:54;100178.38;;;1.40;98.83
26531;BME280;14201;43.188;24.160;2023-01-26T08:35:20;100177.25;;;1.47;99.26
26531;BME280;14201;43.188;24.160;2023-01-26T08:37:45;100177.38;;;1.48;99.67
26531;BME280;14201;43.188;24.160;2023-01-26T08:40:11;100178.56;;;1.62;98.97
26531;BME280;14201;43.188;24.160;2023-01-26T08:42:36;100171.66;;;1.82;98.01
26531;BME280;14201;43.188;24.160;2023-01-26T08:45:01;100174.88;;;1.89;96.47
26531;BME280;14201;43.188;24.160;2023-01-26T08:47:27;100168.22;;;1.81;96.90
26531;BME280;14201;43.188;24.160;2023-01-26T08:49:52;100159.56;;;1.70;96.82
26531;BME280;14201;43.188;24.160;2023-01-26T08:52:18;100166.53;;;1.82;95.87
26531;BME280;14201;43.188;24.160;2023-01-26T08:54:45;100161.53;;;1.83;96.27
26531;BME280;14201;43.188;24.160;2023-01-26T08:57:11;100165.00;;;1.84;95.93
26531;BME280;14201;43.188;24.160;2023-01-26T08:59:36;100156.91;;;1.89;95.60
26531;BME280;14201;43.188;24.160;2023-01-26T09:02:01;100158.81;;;1.71;96.02
26531;BME280;14201;43.188;24.160;2023-01-26T09:04:27;100153.69;;;1.61;95.88
26531;BME280;14201;43.188;24.160;2023-01-26T09:06:53;100144.53;;;1.54;95.83
26531;BME280;14201;43.188;24.160;2023-01-26T09:09:18;100127.88;;;1.60;96.43
26531;BME280;14201;43.188;24.160;2023-01-26T09:11:43;100133.53;;;1.66;95.75
26531;BME280;14201;43.188;24.160;2023-01-26T09:14:09;100132.63;;;1.86;96.40
26531;BME280;14201;43.188;24.160;2023-01-26T09:16:34;100132.78;;;1.77;95.02
26531;BME280;14201;43.188;24.160;2023-01-26T09:19:00;100129.56;;;1.80;94.91
26531;BME280;14201;43.188;24.160;2023-01-26T09:21:25;100132.63;;;1.86;94.65
26531;BME280;14201;43.188;24.160;2023-01-26T09:23:51;100134.44;;;1.76;94.63
26531;BME280;14201;43.188;24.160;2023-01-26T09:26:16;100126.47;;;1.73;95.14
26531;BME280;14201;43.188;24.160;2023-01-26T09:28:41;100113.75;;;1.65;95.07
26531;BME280;14201;43.188;24.160;2023-01-26T09:31:08;100109.25;;;1.72;94.79
26531;BME280;14201;43.188;24.160;2023-01-26T09:33:34;100103.50;;;1.85;94.25
26531;BME280;14201;43.188;24.160;2023-01-26T09:36:07;100103.50;;;1.85;94.15
26531;BME280;14201;43.188;24.160;2023-01-26T09:38:33;100108.09;;;2.00;93.38
26531;BME280;14201;43.188;24.160;2023-01-26T09:43:52;100108.09;;;2.00;92.52
26531;BME280;14201;43.188;24.160;2023-01-26T09:46:22;100109.66;;;2.08;91.28
26531;BME280;14201;43.188;24.160;2023-01-26T09:51:21;100092.41;;;2.17;90.94
26531;BME280;14201;43.188;24.160;2023-01-26T09:53:52;100100.16;;;2.07;91.63
26531;BME280;14201;43.188;24.160;2023-01-26T09:56:20;100100.28;;;2.29;91.21
26531;BME280;14201;43.188;24.160;2023-01-26T10:02:13;100090.75;;;2.28;90.60
26531;BME280;14201;43.188;24.160;2023-01-26T10:04:26;100090.50;;;2.35;91.04
26531;BME280;14201;43.188;24.160;2023-01-26T10:06:56;100083.63;;;2.46;90.89
26531;BME280;14201;43.188;24.160;2023-01-26T10:09:23;100081.88;;;2.24;90.65
26531;BME280;14201;43.188;24.160;2023-01-26T10:11:51;100073.69;;;2.18;90.95
26531;BME280;14201;43.188;24.160;2023-01-26T10:16:51;100073.53;;;2.16;91.44
26531;BME280;14201;43.188;24.160;2023-01-26T10:19:30;100068.50;;;2.28;91.08
26531;BME280;14201;43.188;24.160;2023-01-26T10:21:56;100068.03;;;2.12;90.89
26531;BME280;14201;43.188;24.160;2023-01-26T10:24:24;100027.59;;;1.99;91.23
26531;BME280;14201;43.188;24.160;2023-01-26T10:26:51;100049.72;;;2.40;91.14
26531;BME280;14201;43.188;24.160;2023-01-26T10:29:17;100047.41;;;2.43;91.09
26531;BME280;14201;43.188;24.160;2023-01-26T10:31:43;100038.81;;;2.32;91.56
26531;BME280;14201;43.188;24.160;2023-01-26T10:36:34;100034.56;;;2.43;93.26
26531;BME280;14201;43.188;24.160;2023-01-26T10:39:03;100040.31;;;2.50;93.36
26531;BME280;14201;43.188;24.160;2023-01-26T10:41:29;100029.78;;;2.47;93.57
26531;BME280;14201;43.188;24.160;2023-01-26T10:43:59;100031.91;;;2.63;93.26
26531;BME280;14201;43.188;24.160;2023-01-26T10:48:51;100018.50;;;2.67;92.69
26531;BME280;14201;43.188;24.160;2023-01-26T10:51:21;100022.34;;;2.72;92.15
26531;BME280;14201;43.188;24.160;2023-01-26T10:53:47;100012.19;;;2.96;90.41
26531;BME280;14201;43.188;24.160;2023-01-26T10:56:13;100011.72;;;2.90;90.00
26531;BME280;14201;43.188;24.160;2023-01-26T11:01:05;100003.47;;;2.94;89.62
26531;BME280;14201;43.188;24.160;2023-01-26T11:03:36;100001.44;;;2.90;89.67
26531;BME280;14201;43.188;24.160;2023-01-26T11:06:05;100001.69;;;2.93;90.59
26531;BME280;14201;43.188;24.160;2023-01-26T11:08:40;99991.41;;;2.93;90.95
26531;BME280;14201;43.188;24.160;2023-01-26T11:11:08;99983.78;;;2.94;91.33
26531;BME280;14201;43.188;24.160;2023-01-26T11:13:46;99971.88;;;3.07;90.55
26531;BME280;14201;43.188;24.160;2023-01-26T11:16:21;99969.25;;;2.95;90.98
26531;BME280;14201;43.188;24.160;2023-01-26T11:18:53;99952.38;;;2.99;91.45
26531;BME280;14201;43.188;24.160;2023-01-26T11:21:22;99956.97;;;3.03;90.79
26531;BME280;14201;43.188;24.160;2023-01-26T11:24:07;99948.16;;;3.11;90.45
26531;BME280;14201;43.188;24.160;2023-01-26T11:39:52;99920.34;;;3.29;89.30
26531;BME280;14201;43.188;24.160;2023-01-26T11:58:03;99897.22;;;3.41;90.84
26531;BME280;14201;43.188;24.160;2023-01-26T12:00:40;99891.50;;;3.57;90.55
26531;BME280;14201;43.188;24.160;2023-01-26T12:03:18;99888.84;;;3.67;89.16
26531;BME280;14201;43.188;24.160;2023-01-26T12:05:46;99883.59;;;3.65;89.97
26531;BME280;14201;43.188;24.160;2023-01-26T12:13:39;99873.28;;;3.77;89.62
26531;BME280;14201;43.188;24.160;2023-01-26T12:16:12;99874.03;;;3.76;89.21
26531;BME280;14201;43.188;24.160;2023-01-26T12:18:42;99866.41;;;3.89;89.26
26531;BME280;14201;43.188;24.160;2023-01-26T12:21:10;99870.25;;;3.94;88.77
26531;BME280;14201;43.188;24.160;2023-01-26T12:26:13;99869.56;;;3.85;88.83
26531;BME280;14201;43.188;24.160;2023-01-26T12:28:45;99878.09;;;3.84;89.49
26531;BME280;14201;43.188;24.160;2023-01-26T12:31:15;99872.25;;;3.87;89.47
26531;BME280;14201;43.188;24.160;2023-01-26T12:33:41;99870.25;;;3.83;89.53
26531;BME280;14201;43.188;24.160;2023-01-26T12:44:34;99866.88;;;3.96;88.71
26531;BME280;14201;43.188;24.160;2023-01-26T12:46:33;99867.31;;;4.02;87.66
26531;BME280;14201;43.188;24.160;2023-01-26T12:49:02;99863.75;;;4.00;87.82
26531;BME280;14201;43.188;24.160;2023-01-26T12:51:35;99853.53;;;3.89;87.27
26531;BME280;14201;43.188;24.160;2023-01-26T12:56:40;99851.50;;;3.97;87.29
26531;BME280;14201;43.188;24.160;2023-01-26T12:59:13;99844.25;;;3.91;87.28
26531;BME280;14201;43.188;24.160;2023-01-26T13:01:41;99850.06;;;3.89;87.38
26531;BME280;14201;43.188;24.160;2023-01-26T13:04:10;99844.72;;;3.86;87.02
26531;BME280;14201;43.188;24.160;2023-01-26T13:06:39;99833.06;;;3.79;87.35
26531;BME280;14201;43.188;24.160;2023-01-26T13:11:46;99824.66;;;3.82;86.68
26531;BME280;14201;43.188;24.160;2023-01-26T13:14:28;99823.00;;;3.82;86.81
26531;BME280;14201;43.188;24.160;2023-01-26T13:16:54;99832.06;;;3.77;87.20
26531;BME280;14201;43.188;24.160;2023-01-26T13:19:33;99829.16;;;3.72;87.20
26531;BME280;14201;43.188;24.160;2023-01-26T13:21:59;99826.47;;;3.83;86.87
26531;BME280;14201;43.188;24.160;2023-01-26T13:26:51;99806.63;;;3.70;87.19
26531;BME280;14201;43.188;24.160;2023-01-26T13:32:49;99791.09;;;3.68;87.46
26531;BME280;14201;43.188;24.160;2023-01-26T13:34:47;99799.69;;;3.81;87.07
26531;BME280;14201;43.188;24.160;2023-01-26T13:37:15;99797.56;;;3.75;86.01
26531;BME280;14201;43.188;24.160;2023-01-26T13:39:44;99793.00;;;3.59;87.78
26531;BME280;14201;43.188;24.160;2023-01-26T13:42:15;99803.63;;;3.64;86.84
26531;BME280;14201;43.188;24.160;2023-01-26T13:44:42;99794.13;;;3.51;87.52
26531;BME280;14201;43.188;24.160;2023-01-26T13:47:14;99788.75;;;3.48;88.22
26531;BME280;14201;43.188;24.160;2023-01-26T13:49:42;99791.44;;;3.49;88.79
26531;BME280;14201;43.188;24.160;2023-01-26T13:52:15;99781.59;;;3.44;89.38
26531;BME280;14201;43.188;24.160;2023-01-26T13:54:41;99790.88;;;3.42;89.79
26531;BME280;14201;43.188;24.160;2023-01-26T13:57:09;99785.72;;;3.53;88.92
26531;BME280;14201;43.188;24.160;2023-01-26T13:59:46;99789.19;;;3.54;88.51
26531;BME280;14201;43.188;24.160;2023-01-26T14:02:20;99782.03;;;3.50;88.76
26531;BME280;14201;43.188;24.160;2023-01-26T14:04:49;99776.44;;;3.55;88.03
26531;BME280;14201;43.188;24.160;2023-01-26T14:07:15;99769.47;;;3.54;88.68
26531;BME280;14201;43.188;24.160;2023-01-26T14:09:43;99773.53;;;3.63;87.62
26531;BME280;14201;43.188;24.160;2023-01-26T14:12:12;99770.41;;;3.55;88.23
26531;BME280;14201;43.188;24.160;2023-01-26T14:14:41;99759.72;;;3.62;88.41